createdAt,value
2018-04-19T00:01:21.595Z,94.40
2018-04-19T00:03:49.822Z,94.80
2018-04-19T00:06:17.282Z,94.50
2018-04-19T00:08:45.505Z,94.60
2018-04-19T00:11:13.046Z,94.30
2018-04-19T00:13:40.489Z,94.50
2018-04-19T00:16:07.973Z,94.70
2018-04-19T00:18:35.479Z,94.80
2018-04-19T00:21:02.936Z,95.00
2018-04-19T00:23:30.428Z,95.40
2018-04-19T00:25:57.898Z,94.80
2018-04-19T00:28:25.358Z,94.70
2018-04-19T00:30:52.883Z,94.90
2018-04-19T00:33:20.323Z,95.30
2018-04-19T00:35:49.314Z,95.50
2018-04-19T00:38:16.777Z,95.30
2018-04-19T00:40:45.027Z,95.80
2018-04-19T00:43:13.030Z,95.80
2018-04-19T00:45:41.287Z,96.10
2018-04-19T00:48:08.746Z,96.20
2018-04-19T00:50:36.195Z,96.00
2018-04-19T00:53:09.621Z,96.10
2018-04-19T00:55:37.834Z,96.30
2018-04-19T00:58:05.324Z,96.00
2018-04-19T01:00:32.837Z,95.70
2018-04-19T01:03:00.338Z,96.40
2018-04-19T01:05:27.796Z,96.40
2018-04-19T01:07:55.241Z,97.00
2018-04-19T01:10:22.754Z,96.80
2018-04-19T01:12:50.944Z,97.00
2018-04-19T01:15:18.398Z,97.10
2018-04-19T01:17:45.927Z,97.10
2018-04-19T01:20:13.374Z,97.30
2018-04-19T01:22:40.839Z,97.40
2018-04-19T01:25:08.330Z,97.00
2018-04-19T01:27:35.832Z,97.00
2018-04-19T01:30:04.255Z,97.40
2018-04-19T01:32:31.719Z,97.40
2018-04-19T01:34:59.196Z,97.20
2018-04-19T01:37:26.695Z,97.40
2018-04-19T01:39:54.146Z,97.40
2018-04-19T01:42:22.383Z,97.20
2018-04-19T01:44:49.873Z,97.00
2018-04-19T01:47:18.134Z,97.50
2018-04-19T01:49:45.582Z,97.30
2018-04-19T01:52:13.043Z,97.20
2018-04-19T01:54:40.557Z,97.60
2018-04-19T01:57:08.047Z,97.60
2018-04-19T01:59:35.529Z,98.00
2018-04-19T02:02:02.991Z,98.10
2018-04-19T02:04:31.238Z,98.40
2018-04-19T02:06:58.691Z,98.50
2018-04-19T02:09:26.179Z,98.40
2018-04-19T02:11:54.398Z,98.90
2018-04-19T02:14:21.867Z,98.60
2018-04-19T02:16:49.311Z,98.80
2018-04-19T02:19:16.811Z,98.80
2018-04-19T02:21:44.211Z,98.70
2018-04-19T02:24:11.698Z,99.00
2018-04-19T02:26:39.161Z,98.80
2018-04-19T02:29:06.595Z,98.90
2018-04-19T02:31:34.119Z,99.80
2018-04-19T02:34:01.567Z,99.60
2018-04-19T02:36:29.007Z,99.70
2018-04-19T02:38:56.855Z,99.80
2018-04-19T02:41:24.342Z,99.80
2018-04-19T02:43:52.603Z,99.90
2018-04-19T02:46:20.055Z,99.90
2018-04-19T02:48:47.580Z,99.90
2018-04-19T02:51:15.047Z,99.90
2018-04-19T02:53:42.533Z,99.90
2018-04-19T02:56:10.794Z,99.90
2018-04-19T02:58:38.257Z,99.90
2018-04-19T03:01:05.736Z,99.90
2018-04-19T03:03:33.970Z,99.90
2018-04-19T03:06:01.416Z,99.90
2018-04-19T03:08:28.903Z,99.90
2018-04-19T03:10:56.363Z,99.90
2018-04-19T03:13:23.908Z,99.90
2018-04-19T03:15:51.357Z,99.90
2018-04-19T03:18:18.882Z,99.90
2018-04-19T03:20:46.367Z,99.90
2018-04-19T03:23:13.827Z,99.90
2018-04-19T03:25:41.364Z,99.90
2018-04-19T03:28:08.823Z,99.90
2018-04-19T03:30:36.275Z,99.90
2018-04-19T03:33:03.754Z,99.90
2018-04-19T03:35:31.655Z,99.90
2018-04-19T03:37:59.095Z,99.90
2018-04-19T03:40:26.542Z,99.90
2018-04-19T03:42:54.032Z,99.90
2018-04-19T03:45:21.523Z,99.90
2018-04-19T03:47:49.011Z,99.90
2018-04-19T03:50:16.459Z,99.90
2018-04-19T03:52:43.919Z,99.90
2018-04-19T03:55:11.395Z,99.90
2018-04-19T03:57:39.824Z,99.90
2018-04-19T04:00:07.453Z,99.90
2018-04-19T04:02:34.956Z,99.90
2018-04-19T04:05:02.486Z,99.90
2018-04-19T04:07:29.990Z,99.90
2018-04-19T04:09:57.492Z,99.90
2018-04-19T04:12:24.958Z,99.90
2018-04-19T04:14:52.434Z,99.90
2018-04-19T04:17:31.807Z,99.90
2018-04-19T04:23:30.739Z,99.90
2018-04-19T04:25:59.040Z,99.90
2018-04-19T04:28:26.540Z,99.90
2018-04-19T04:30:53.991Z,99.90
2018-04-19T04:33:21.468Z,99.90
2018-04-19T04:35:49.148Z,99.90
2018-04-19T04:38:17.429Z,99.90
2018-04-19T04:40:44.934Z,99.90
2018-04-19T04:43:12.392Z,99.90
2018-04-19T04:45:39.863Z,99.90
2018-04-19T04:48:07.739Z,99.90
2018-04-19T04:50:35.175Z,99.90
2018-04-19T04:53:02.649Z,99.90
2018-04-19T04:55:30.144Z,99.90
2018-04-19T04:57:57.583Z,99.90
2018-04-19T05:00:25.810Z,99.90
2018-04-19T05:02:53.269Z,99.90
2018-04-19T05:05:20.873Z,99.90
2018-04-19T05:07:49.127Z,99.90
2018-04-19T05:10:16.570Z,99.90
2018-04-19T05:12:44.058Z,99.90
2018-04-19T05:15:12.286Z,99.90
2018-04-19T05:17:39.791Z,99.90
2018-04-19T05:20:08.035Z,99.90
2018-04-19T05:22:36.279Z,99.90
2018-04-19T05:25:04.173Z,99.90
2018-04-19T05:27:32.064Z,99.90
2018-04-19T05:32:31.293Z,99.90
2018-04-19T05:34:59.551Z,99.90
2018-04-19T05:37:27.013Z,99.90
2018-04-19T05:39:55.290Z,99.90
2018-04-19T05:42:23.563Z,99.90
2018-04-19T05:44:51.774Z,99.70
2018-04-19T05:47:19.242Z,99.50
2018-04-19T05:49:46.775Z,99.40
2018-04-19T05:52:14.302Z,95.70
2018-04-19T05:54:41.373Z,91.80
2018-04-19T05:57:08.444Z,88.70
2018-04-19T05:59:35.479Z,84.30
2018-04-19T06:02:02.966Z,80.40
2018-04-19T06:04:31.563Z,77.80
2018-04-19T06:06:59.088Z,78.60
2018-04-19T06:09:26.606Z,75.50
2018-04-19T06:11:54.875Z,72.90
2018-04-19T06:14:23.141Z,72.20
2018-04-19T06:16:50.666Z,72.10
2018-04-19T06:19:18.151Z,70.80
2018-04-19T06:21:45.676Z,71.40
2018-04-19T06:24:13.146Z,68.70
2018-04-19T06:26:40.653Z,68.40
2018-04-19T06:29:08.907Z,68.00
2018-04-19T06:31:36.436Z,67.90
2018-04-19T06:34:03.983Z,69.00
2018-04-19T06:36:31.501Z,65.80
2018-04-19T06:38:59.022Z,66.40
2018-04-19T06:41:26.550Z,65.90
2018-04-19T06:43:54.754Z,63.90
2018-04-19T06:46:22.226Z,63.10
2018-04-19T06:48:49.704Z,65.10
2018-04-19T06:51:18.017Z,66.80
2018-04-19T06:56:39.039Z,68.70
2018-04-19T06:59:06.518Z,70.40
2018-04-19T07:01:33.998Z,70.10
2018-04-19T07:04:01.438Z,70.70
2018-04-19T07:06:29.020Z,71.30
2018-04-19T07:08:56.450Z,70.30
2018-04-19T07:11:23.968Z,69.40
2018-04-19T07:13:51.423Z,67.90
2018-04-19T07:16:18.863Z,67.80
2018-04-19T07:18:47.070Z,62.70
2018-04-19T07:21:14.514Z,62.70
2018-04-19T07:23:41.967Z,57.50
2018-04-19T07:26:09.387Z,59.70
2018-04-19T07:28:36.821Z,60.70
2018-04-19T07:31:04.254Z,54.10
2018-04-19T07:33:31.708Z,53.10
2018-04-19T07:35:59.140Z,55.30
2018-04-19T07:38:26.574Z,52.50
2018-04-19T07:40:54.790Z,52.20
2018-04-19T07:43:22.233Z,52.10
2018-04-19T07:45:49.670Z,50.40
2018-04-19T07:48:17.885Z,51.50
2018-04-19T07:50:45.331Z,51.50
2018-04-19T07:53:12.758Z,51.80
2018-04-19T07:55:40.234Z,53.40
2018-04-19T07:58:07.630Z,51.70
2018-04-19T08:00:35.074Z,50.70
2018-04-19T08:03:02.524Z,50.20
2018-04-19T08:05:30.004Z,50.40
2018-04-19T08:07:57.408Z,51.40
2018-04-19T08:10:24.829Z,50.90
2018-04-19T08:12:52.263Z,50.90
2018-04-19T08:15:19.691Z,51.70
2018-04-19T08:17:47.123Z,52.10
2018-04-19T08:20:14.549Z,50.00
2018-04-19T08:22:41.990Z,49.10
2018-04-19T08:25:09.431Z,48.10
2018-04-19T08:27:36.874Z,47.00
2018-04-19T08:30:04.318Z,48.30
2018-04-19T08:32:31.750Z,47.60
2018-04-19T08:34:59.947Z,45.60
2018-04-19T08:37:27.370Z,45.60
2018-04-19T08:39:55.577Z,46.40
2018-04-19T08:42:23.019Z,46.30
2018-04-19T08:44:50.445Z,45.60
2018-04-19T08:47:17.418Z,43.90
2018-04-19T08:49:44.421Z,44.20
2018-04-19T08:52:11.406Z,44.20
2018-04-19T08:54:38.401Z,44.50
2018-04-19T08:57:05.877Z,41.50
2018-04-19T08:59:33.352Z,42.40
2018-04-19T09:02:01.552Z,41.20
2018-04-19T09:04:28.985Z,41.10
2018-04-19T09:06:57.177Z,42.70
2018-04-19T09:09:24.610Z,38.20
2018-04-19T09:11:52.816Z,37.60
2018-04-19T09:14:20.241Z,37.50
2018-04-19T09:16:48.438Z,38.80
2018-04-19T09:19:15.865Z,38.80
2018-04-19T09:21:44.077Z,36.40
2018-04-19T09:24:11.512Z,36.30
2018-04-19T09:26:38.961Z,36.70
2018-04-19T09:29:07.179Z,37.80
2018-04-19T09:31:34.694Z,37.80
2018-04-19T09:34:02.918Z,34.60
2018-04-19T09:36:30.341Z,34.70
2018-04-19T09:38:57.770Z,38.10
2018-04-19T09:41:25.198Z,37.80
2018-04-19T09:43:52.638Z,37.80
2018-04-19T09:46:20.069Z,35.20
2018-04-19T09:48:47.505Z,36.50
2018-04-19T09:51:15.695Z,35.80
2018-04-19T09:53:43.124Z,35.80
2018-04-19T09:56:11.310Z,34.90
2018-04-19T09:58:38.748Z,34.90
2018-04-19T10:01:08.973Z,36.50
2018-04-19T10:03:42.890Z,34.60
2018-04-19T10:06:11.099Z,34.50
2018-04-19T10:08:38.530Z,34.40
2018-04-19T10:11:05.958Z,33.00
2018-04-19T10:13:33.405Z,33.20
2018-04-19T10:16:00.904Z,34.50
2018-04-19T10:18:28.261Z,32.10
2018-04-19T10:20:55.701Z,31.40
2018-04-19T10:23:23.908Z,33.10
2018-04-19T10:25:52.111Z,33.50
2018-04-19T10:28:19.537Z,33.50
2018-04-19T10:30:46.978Z,33.80
2018-04-19T10:33:14.394Z,33.40
2018-04-19T10:35:41.835Z,34.70
2018-04-19T10:38:09.271Z,34.60
2018-04-19T10:40:36.715Z,35.20
2018-04-19T10:43:04.150Z,33.50
2018-04-19T10:45:32.347Z,34.10
2018-04-19T10:47:59.771Z,34.00
2018-04-19T10:50:27.977Z,34.30
2018-04-19T10:52:55.405Z,34.30
2018-04-19T10:55:22.851Z,33.70
2018-04-19T10:57:51.062Z,33.80
2018-04-19T11:00:18.506Z,34.00
2018-04-19T11:02:45.933Z,33.80
2018-04-19T11:05:13.365Z,32.00
2018-04-19T11:07:40.807Z,33.70
2018-04-19T11:10:08.242Z,33.80
2018-04-19T11:12:35.673Z,33.00
2018-04-19T11:15:03.119Z,32.60
2018-04-19T11:17:31.332Z,32.80
2018-04-19T11:19:58.768Z,32.80
2018-04-19T11:22:26.294Z,33.60
2018-04-19T11:24:53.701Z,32.40
2018-04-19T11:27:21.125Z,34.20
2018-04-19T11:29:48.558Z,33.30
2018-04-19T11:32:16.015Z,34.60
2018-04-19T11:34:43.450Z,33.50
2018-04-19T11:37:10.893Z,33.40
2018-04-19T11:39:38.331Z,33.30
2018-04-19T11:42:05.800Z,34.30
2018-04-19T11:44:33.231Z,34.10
2018-04-19T11:47:00.666Z,34.50
2018-04-19T11:49:28.863Z,33.10
2018-04-19T11:51:56.284Z,33.20
2018-04-19T11:54:24.481Z,32.70
2018-04-19T11:56:51.910Z,32.50
2018-04-19T11:59:19.349Z,31.40
2018-04-19T12:01:46.782Z,33.50
2018-04-19T12:04:14.210Z,31.30
2018-04-19T12:06:41.642Z,32.00
2018-04-19T12:09:09.839Z,31.00
2018-04-19T12:11:37.261Z,30.80
2018-04-19T12:14:04.688Z,30.90
2018-04-19T12:16:32.509Z,32.40
2018-04-19T12:18:59.929Z,32.90
2018-04-19T12:21:27.373Z,32.10
2018-04-19T12:23:54.814Z,31.80
2018-04-19T12:26:22.253Z,31.10
2018-04-19T12:28:49.674Z,31.60
2018-04-19T12:31:17.873Z,30.90
2018-04-19T12:33:45.302Z,30.90
2018-04-19T12:36:12.730Z,30.70
2018-04-19T12:38:40.158Z,31.80
2018-04-19T12:41:07.605Z,32.10
2018-04-19T12:43:35.034Z,32.20
2018-04-19T12:46:03.225Z,32.10
2018-04-19T12:48:30.659Z,32.20
2018-04-19T12:50:58.864Z,31.80
2018-04-19T12:53:26.286Z,32.30
2018-04-19T12:55:54.486Z,31.00
2018-04-19T12:58:21.913Z,31.00
2018-04-19T13:00:50.115Z,30.80
2018-04-19T13:03:18.306Z,31.20
2018-04-19T13:05:45.729Z,31.10
2018-04-19T13:08:13.207Z,30.50
2018-04-19T13:10:44.454Z,30.80
2018-04-19T13:13:16.193Z,31.10
2018-04-19T13:15:44.098Z,30.30
2018-04-19T13:18:11.991Z,30.70
2018-04-19T13:20:39.399Z,31.80
2018-04-19T13:23:07.604Z,31.80
2018-04-19T13:25:35.021Z,31.20
2018-04-19T13:28:02.458Z,31.10
2018-04-19T13:30:29.879Z,31.20
2018-04-19T13:32:57.314Z,31.30
2018-04-19T13:35:24.746Z,31.80
2018-04-19T13:37:52.178Z,32.10
2018-04-19T13:40:19.623Z,31.90
2018-04-19T13:42:47.058Z,33.40
2018-04-19T13:45:14.492Z,31.30
2018-04-19T13:47:41.928Z,31.00
2018-04-19T13:50:10.148Z,32.00
2018-04-19T13:52:37.587Z,31.40
2018-04-19T13:55:05.030Z,32.10
2018-04-19T13:57:33.242Z,31.70
2018-04-19T14:00:00.678Z,31.70
2018-04-19T14:02:28.131Z,33.00
2018-04-19T14:04:55.559Z,32.10
2018-04-19T14:07:23.857Z,32.60
2018-04-19T14:09:51.456Z,32.60
2018-04-19T14:12:18.978Z,33.30
2018-04-19T14:14:46.452Z,33.80
2018-04-19T14:17:13.943Z,33.10
2018-04-19T14:19:41.451Z,34.40
2018-04-19T14:22:08.930Z,35.10
2018-04-19T14:24:40.504Z,34.20
2018-04-19T14:27:08.786Z,33.00
2018-04-19T14:29:36.285Z,33.10
2018-04-19T14:32:03.799Z,34.00
2018-04-19T14:34:31.281Z,33.90
2018-04-19T14:36:58.707Z,34.70
2018-04-19T14:39:26.158Z,33.70
2018-04-19T14:41:53.664Z,34.90
2018-04-19T14:44:21.155Z,35.60
2018-04-19T14:46:48.577Z,35.30
2018-04-19T14:49:16.812Z,34.70
2018-04-19T14:51:44.222Z,34.60
2018-04-19T14:54:11.649Z,35.00
2018-04-19T14:56:39.866Z,35.30
2018-04-19T14:59:07.306Z,35.30
2018-04-19T15:01:34.726Z,35.20
2018-04-19T15:04:02.195Z,35.90
2018-04-19T15:06:30.382Z,36.30
2018-04-19T15:08:58.587Z,35.50
2018-04-19T15:11:26.013Z,35.50
2018-04-19T15:13:53.453Z,36.40
2018-04-19T15:16:21.651Z,36.50
2018-04-19T15:18:49.090Z,36.50
2018-04-19T15:21:17.716Z,35.60
2018-04-19T15:23:45.206Z,35.00
2018-04-19T15:26:12.730Z,34.60
2018-04-19T15:28:39.847Z,35.70
2018-04-19T15:31:06.932Z,35.90
2018-04-19T15:33:34.423Z,35.20
2018-04-19T15:36:01.939Z,35.90
2018-04-19T15:38:29.451Z,36.70
2018-04-19T15:40:56.889Z,35.00
2018-04-19T15:43:24.330Z,34.70
2018-04-19T15:45:51.766Z,34.40
2018-04-19T15:48:19.199Z,35.50
2018-04-19T15:50:46.630Z,35.70
2018-04-19T15:53:14.066Z,34.50
2018-04-19T15:55:41.511Z,34.00
2018-04-19T15:58:08.944Z,33.60
2018-04-19T16:00:36.389Z,33.50
2018-04-19T16:03:03.826Z,34.00
2018-04-19T16:05:32.037Z,33.60
2018-04-19T16:07:59.680Z,33.60
2018-04-19T16:10:27.110Z,32.00
2018-04-19T16:12:55.318Z,30.70
2018-04-19T16:15:22.762Z,30.60
2018-04-19T16:17:50.186Z,32.70
2018-04-19T16:20:17.624Z,31.90
2018-04-19T16:22:45.062Z,31.90
2018-04-19T16:25:12.900Z,32.60
2018-04-19T16:27:40.326Z,33.00
2018-04-19T16:30:08.531Z,31.90
2018-04-19T16:32:35.958Z,31.50
2018-04-19T16:35:03.417Z,31.80
2018-04-19T16:37:31.698Z,31.60
2018-04-19T16:39:59.138Z,32.10
2018-04-19T16:42:26.702Z,32.50
2018-04-19T16:44:54.149Z,31.90
2018-04-19T16:47:21.615Z,33.30
2018-04-19T16:49:49.189Z,32.80
2018-04-19T16:52:17.447Z,33.50
2018-04-19T16:54:44.923Z,32.50
2018-04-19T16:57:13.198Z,33.10
2018-04-19T16:59:40.710Z,33.20
2018-04-19T17:02:08.251Z,33.10
2018-04-19T17:04:36.502Z,34.10
2018-04-19T17:07:04.711Z,34.40
2018-04-19T17:09:32.172Z,34.00
2018-04-19T17:11:59.678Z,33.60
2018-04-19T17:14:27.905Z,33.60
2018-04-19T17:16:55.394Z,33.80
2018-04-19T17:19:22.920Z,34.40
2018-04-19T17:21:50.414Z,34.10
2018-04-19T17:24:17.830Z,34.90
2018-04-19T17:26:45.368Z,35.00
2018-04-19T17:29:12.874Z,35.50
2018-04-19T17:31:40.362Z,35.70
2018-04-19T17:34:08.657Z,35.80
2018-04-19T17:36:36.443Z,35.70
2018-04-19T17:39:03.905Z,35.60
2018-04-19T17:41:31.420Z,35.90
2018-04-19T17:43:58.421Z,35.50
2018-04-19T17:46:25.451Z,35.70
2018-04-19T17:48:53.233Z,36.50
2018-04-19T17:51:20.313Z,36.20
2018-04-19T17:53:47.397Z,36.40
2018-04-19T17:56:14.902Z,36.80
2018-04-19T17:58:42.404Z,36.60
2018-04-19T18:01:09.923Z,37.50
2018-04-19T18:03:37.390Z,36.90
2018-04-19T18:06:04.857Z,37.90
2018-04-19T18:08:33.167Z,39.00
2018-04-19T18:11:00.659Z,37.90
2018-04-19T18:13:28.109Z,38.80
2018-04-19T18:15:55.630Z,39.30
2018-04-19T18:18:23.930Z,40.90
2018-04-19T18:20:51.392Z,40.40
2018-04-19T18:23:18.874Z,44.50
2018-04-19T18:25:46.655Z,47.20
2018-04-19T18:28:14.174Z,49.50
2018-04-19T18:30:41.641Z,50.20
2018-04-19T18:33:09.122Z,51.90
2018-04-19T18:35:36.613Z,53.40
2018-04-19T18:38:04.873Z,56.40
2018-04-19T18:40:32.696Z,56.00
2018-04-19T18:43:00.175Z,57.10
2018-04-19T18:45:27.611Z,58.60
2018-04-19T18:47:55.131Z,59.30
2018-04-19T18:50:22.558Z,60.50
2018-04-19T18:52:50.083Z,60.40
2018-04-19T18:55:17.595Z,61.60
2018-04-19T18:57:45.859Z,62.90
2018-04-19T19:00:13.375Z,62.30
2018-04-19T19:02:40.862Z,62.00
2018-04-19T19:05:08.477Z,62.00
2018-04-19T19:07:36.015Z,62.60
2018-04-19T19:10:03.535Z,64.00
2018-04-19T19:12:31.018Z,63.40
2018-04-19T19:15:02.854Z,63.90
2018-04-19T19:17:42.284Z,63.80
2018-04-19T19:20:11.466Z,65.20
2018-04-19T19:22:38.971Z,66.00
2018-04-19T19:25:06.482Z,67.30
2018-04-19T19:27:33.995Z,67.90
2018-04-19T19:30:02.204Z,69.10
2018-04-19T19:32:29.668Z,68.60
2018-04-19T19:34:57.153Z,69.00
2018-04-19T19:37:25.081Z,69.80
2018-04-19T19:39:52.657Z,69.80
2018-04-19T19:42:20.828Z,71.00
2018-04-19T19:44:48.403Z,70.30
2018-04-19T19:47:16.714Z,70.70
2018-04-19T19:49:44.622Z,71.40
2018-04-19T19:52:12.143Z,72.10
2018-04-19T19:54:40.376Z,73.10
2018-04-19T19:57:07.908Z,73.80
2018-04-19T19:59:35.379Z,73.20
2018-04-19T20:02:02.931Z,73.40
2018-04-19T20:04:30.511Z,73.70
2018-04-19T20:06:58.031Z,74.40
2018-04-19T20:09:25.534Z,74.40
2018-04-19T20:11:53.057Z,75.20
2018-04-19T20:14:20.545Z,75.90
2018-04-19T20:16:48.649Z,76.50
2018-04-19T20:19:16.217Z,76.60
2018-04-19T20:21:43.751Z,77.50
2018-04-19T20:24:11.260Z,77.40
2018-04-19T20:26:38.760Z,78.40
2018-04-19T20:29:06.235Z,78.30
2018-04-19T20:31:34.490Z,79.00
2018-04-19T20:34:02.038Z,78.90
2018-04-19T20:36:29.523Z,79.30
2018-04-19T20:38:57.038Z,80.00
2018-04-19T20:41:24.542Z,80.10
2018-04-19T20:43:52.823Z,80.90
2018-04-19T20:46:21.090Z,81.20
2018-04-19T20:48:48.541Z,81.50
2018-04-19T20:51:16.016Z,82.10
2018-04-19T20:53:44.255Z,82.10
2018-04-19T20:56:11.741Z,82.20
2018-04-19T20:58:40.022Z,82.80
2018-04-19T21:01:08.269Z,82.80
2018-04-19T21:03:35.768Z,82.20
2018-04-19T21:06:04.045Z,83.00
2018-04-19T21:08:31.572Z,83.10
2018-04-19T21:10:59.153Z,81.80
2018-04-19T21:13:26.582Z,82.00
2018-04-19T21:15:54.102Z,83.30
2018-04-19T21:18:21.663Z,83.00
2018-04-19T21:20:49.217Z,84.30
2018-04-19T21:23:17.489Z,84.20
2018-04-19T21:25:45.015Z,83.50
2018-04-19T21:28:12.536Z,83.90
2018-04-19T21:30:40.069Z,85.00
2018-04-19T21:33:07.556Z,84.50
2018-04-19T21:35:35.042Z,85.10
2018-04-19T21:38:03.297Z,85.60
2018-04-19T21:40:31.576Z,86.60
2018-04-19T21:42:59.842Z,86.20
2018-04-19T21:45:27.424Z,86.70
2018-04-19T21:47:55.707Z,87.00
2018-04-19T21:50:23.236Z,87.10
2018-04-19T21:52:50.734Z,87.30
2018-04-19T21:55:18.234Z,88.00
2018-04-19T21:57:45.743Z,89.00
2018-04-19T22:00:13.272Z,88.30
2018-04-19T22:02:40.825Z,89.00
2018-04-19T22:05:08.323Z,89.00
2018-04-19T22:07:36.206Z,88.10
2018-04-19T22:10:03.698Z,88.70
2018-04-19T22:12:31.211Z,89.60
2018-04-19T22:14:58.723Z,90.00
2018-04-19T22:17:26.259Z,90.00
2018-04-19T22:19:53.758Z,90.60
2018-04-19T22:22:22.034Z,90.70
2018-04-19T22:24:50.331Z,91.10
2018-04-19T22:27:17.835Z,91.10
2018-04-19T22:29:45.367Z,91.20
2018-04-19T22:32:12.880Z,91.60
2018-04-19T22:34:41.132Z,91.20
2018-04-19T22:37:08.638Z,91.20
2018-04-19T22:39:36.189Z,91.30
2018-04-19T22:42:03.647Z,91.10
2018-04-19T22:44:31.164Z,91.30
2018-04-19T22:46:58.678Z,91.40
2018-04-19T22:49:26.144Z,91.50
2018-04-19T22:51:53.662Z,91.70
2018-04-19T22:54:21.934Z,92.30
2018-04-19T22:56:50.214Z,92.60
2018-04-19T22:59:18.510Z,92.80
2018-04-19T23:01:45.992Z,92.80
2018-04-19T23:04:13.882Z,92.80
2018-04-19T23:06:41.372Z,92.70
2018-04-19T23:09:08.837Z,92.50
2018-04-19T23:11:36.284Z,92.80
2018-04-19T23:14:04.530Z,92.50
2018-04-19T23:16:32.052Z,92.40
2018-04-19T23:18:59.579Z,92.40
2018-04-19T23:21:27.861Z,92.50
2018-04-19T23:23:55.335Z,92.50
2018-04-19T23:26:22.807Z,92.80
2018-04-19T23:28:50.331Z,92.70
2018-04-19T23:31:17.814Z,92.30
2018-04-19T23:33:45.279Z,92.40
2018-04-19T23:36:12.774Z,92.50
2018-04-19T23:38:40.235Z,92.50
2018-04-19T23:41:07.687Z,92.80
2018-04-19T23:43:35.169Z,92.70
2018-04-19T23:46:03.370Z,93.30
2018-04-19T23:48:30.874Z,92.50
2018-04-19T23:50:58.342Z,92.70
2018-04-19T23:53:26.647Z,93.00
2018-04-19T23:55:54.130Z,93.00
2018-04-19T23:58:21.677Z,93.50
